Time,TemperatureF,DewpointF,PressureIn,WindDirection,WindDirectionDegrees,WindSpeedMPH,WindSpeedGustMPH,Humidity,HourlyPrecipIn,Conditions,Clouds,dailyrainin,SoftwareType,DateUTC
2013-03-23 09:03:00,28.0,15.0,-100.00,ESE,114,1.0,-999.0,57,-99.99,,,0.00,,2013-03-23 16:03:00,
2013-03-23 09:12:00,28.0,15.0,-100.00,ESE,114,1.0,-999.0,57,-99.99,,,0.00,,2013-03-23 16:12:00,
2013-03-23 09:22:00,28.0,15.0,-100.00,ESE,114,1.0,-999.0,57,-99.99,,,0.00,,2013-03-23 16:22:00,
2013-03-23 09:32:00,28.0,15.0,-100.00,ESE,114,1.0,-999.0,57,-99.99,,,0.00,,2013-03-23 16:32:00,
2013-03-23 10:02:00,40.0,11.0,-100.00,ENE,70,1.0,3.0,30,0.00,,,0.00,,2013-03-23 17:02:00,
2013-03-23 10:32:00,40.0,11.0,-100.00,ENE,70,1.0,3.0,30,0.00,,,0.00,,2013-03-23 17:32:00,
2013-03-23 11:02:00,44.0,10.0,-100.00,SE,135,2.0,6.0,24,0.00,,,0.00,,2013-03-23 18:02:00,
2013-03-23 11:12:00,44.0,10.0,-100.00,SE,135,2.0,6.0,24,0.00,,,0.00,,2013-03-23 18:12:00,
2013-03-23 11:22:00,44.0,10.0,-100.00,SE,135,2.0,6.0,24,0.00,,,0.00,,2013-03-23 18:22:00,
2013-03-23 11:32:00,44.0,10.0,-100.00,SE,135,2.0,6.0,24,0.00,,,0.00,,2013-03-23 18:32:00,
2013-03-23 12:02:00,51.0,9.0,-100.00,NNW,345,2.0,6.0,18,0.00,,,0.00,,2013-03-23 19:02:00,
2013-03-23 13:02:00,53.0,0.0,-100.00,WSW,257,3.0,9.0,11,0.00,,,0.00,,2013-03-23 20:02:00,
2013-03-23 14:02:00,55.0,3.0,-100.00,SW,226,3.0,12.0,12,0.00,,,0.00,,2013-03-23 21:02:00,
2013-03-23 14:12:00,55.0,3.0,-100.00,SW,226,3.0,12.0,12,0.00,,,0.00,,2013-03-23 21:12:00,
2013-03-23 14:22:00,55.0,3.0,-100.00,SW,226,3.0,12.0,12,0.00,,,0.00,,2013-03-23 21:22:00,
2013-03-23 14:32:00,55.0,3.0,-100.00,SW,226,3.0,12.0,12,0.00,,,0.00,,2013-03-23 21:32:00,
2013-03-23 15:02:00,52.0,7.0,-100.00,WSW,241,4.0,11.0,16,0.00,,,0.00,,2013-03-23 22:02:00,
2013-03-23 15:12:00,52.0,7.0,-100.00,WSW,241,4.0,11.0,16,0.00,,,0.00,,2013-03-23 22:12:00,
2013-03-23 15:23:00,52.0,7.0,-100.00,WSW,241,4.0,11.0,16,0.00,,,0.00,,2013-03-23 22:23:00,
2013-03-23 15:32:00,52.0,7.0,-100.00,WSW,241,4.0,11.0,16,0.00,,,0.00,,2013-03-23 22:32:00,
2013-03-23 16:02:00,55.0,12.0,-100.00,SSW,205,3.0,11.0,18,0.00,,,-99.99,,2013-03-23 23:02:00,
2013-03-23 16:12:00,55.0,12.0,-100.00,SSW,205,3.0,11.0,18,0.00,,,-99.99,,2013-03-23 23:12:00,
2013-03-23 16:22:00,55.0,12.0,-100.00,SSW,205,3.0,11.0,18,0.00,,,-99.99,,2013-03-23 23:22:00,
2013-03-23 16:32:00,55.0,12.0,-100.00,SSW,205,3.0,11.0,18,0.00,,,-99.99,,2013-03-23 23:32:00,
2013-03-23 17:02:00,51.0,15.0,-100.00,SW,229,4.0,13.0,23,0.00,,,0.00,,2013-03-24 00:02:00,
2013-03-23 17:12:00,51.0,15.0,-100.00,SW,229,4.0,13.0,23,0.00,,,0.00,,2013-03-24 00:12:00,
2013-03-23 17:22:00,51.0,15.0,-100.00,SW,229,4.0,13.0,23,0.00,,,0.00,,2013-03-24 00:22:00,
2013-03-23 17:32:00,51.0,15.0,-100.00,SW,229,4.0,13.0,23,0.00,,,0.00,,2013-03-24 00:32:00,
2013-03-23 18:02:00,50.0,15.0,-100.00,WSW,238,4.0,13.0,24,0.00,,,0.00,,2013-03-24 01:02:00,
2013-03-23 18:12:00,50.0,15.0,-100.00,WSW,238,4.0,13.0,24,0.00,,,0.00,,2013-03-24 01:12:00,
2013-03-23 18:22:00,50.0,15.0,-100.00,WSW,238,4.0,13.0,24,0.00,,,0.00,,2013-03-24 01:22:00,
2013-03-23 18:32:00,50.0,15.0,-100.00,WSW,238,4.0,13.0,24,0.00,,,0.00,,2013-03-24 01:32:00,
2013-03-23 19:02:00,46.0,13.0,-100.00,SSW,208,3.0,14.0,26,0.00,,,-99.99,,2013-03-24 02:02:00,
2013-03-23 19:12:00,46.0,13.0,-100.00,SSW,208,3.0,14.0,26,0.00,,,-99.99,,2013-03-24 02:12:00,
2013-03-23 19:21:00,46.0,13.0,-100.00,SSW,208,3.0,14.0,26,0.00,,,-99.99,,2013-03-24 02:21:00,
2013-03-23 19:32:00,46.0,13.0,-100.00,SSW,208,3.0,14.0,26,0.00,,,-99.99,,2013-03-24 02:32:00,